createdAt,value
2023-04-24T00:02:21.010Z,28.90
2023-04-24T00:04:48.313Z,35.90
2023-04-24T00:07:18.027Z,41.50
2023-04-24T00:09:45.325Z,47.70
2023-04-24T00:12:12.549Z,44.90
2023-04-24T00:14:39.904Z,78.70
2023-04-24T00:17:07.276Z,83.20
2023-04-24T00:19:36.382Z,204.90
2023-04-24T00:22:03.916Z,153.80
2023-04-24T00:24:31.088Z,131.90
2023-04-24T00:26:58.433Z,87.20
2023-04-24T00:29:25.642Z,81.00
2023-04-24T00:31:52.950Z,82.90
2023-04-24T00:34:20.064Z,78.60
2023-04-24T00:36:47.428Z,64.30
2023-04-24T00:39:14.648Z,63.80
2023-04-24T00:41:42.480Z,70.40
2023-04-24T00:44:09.634Z,54.80
2023-04-24T00:46:37.232Z,52.00
2023-04-24T00:49:04.587Z,44.80
2023-04-24T00:51:33.911Z,39.60
2023-04-24T00:54:02.406Z,54.40
2023-04-24T00:56:29.611Z,49.80
2023-04-24T00:58:56.937Z,46.70
2023-04-24T01:01:26.932Z,55.10
2023-04-24T01:03:54.372Z,42.30
2023-04-24T01:06:21.735Z,47.10
2023-04-24T01:08:49.272Z,29.60
2023-04-24T01:11:16.363Z,32.70
2023-04-24T01:13:43.525Z,31.90
2023-04-24T01:16:12.308Z,34.80
2023-04-24T01:18:39.467Z,55.70
2023-04-24T01:21:07.172Z,43.60
2023-04-24T01:23:34.269Z,52.80
2023-04-24T01:26:02.131Z,53.00
2023-04-24T01:28:29.266Z,52.30
2023-04-24T01:30:57.625Z,44.40
2023-04-24T01:33:24.717Z,45.20
2023-04-24T01:35:51.912Z,41.20
2023-04-24T01:38:19.139Z,37.40
2023-04-24T01:40:46.400Z,34.00
2023-04-24T01:43:14.082Z,27.50
2023-04-24T01:45:41.277Z,27.70
2023-04-24T01:48:08.349Z,29.50
2023-04-24T01:50:38.960Z,26.40
2023-04-24T01:53:06.180Z,27.50
2023-04-24T01:55:33.650Z,26.40
2023-04-24T01:58:00.813Z,17.00
2023-04-24T02:00:27.980Z,18.80
2023-04-24T02:02:55.315Z,30.60
2023-04-24T02:05:22.610Z,17.10
2023-04-24T02:07:49.875Z,34.60
2023-04-24T02:10:17.043Z,39.30
2023-04-24T02:12:44.873Z,32.90
2023-04-24T02:15:12.295Z,33.00
2023-04-24T02:17:39.774Z,36.00
2023-04-24T02:20:10.158Z,27.30
2023-04-24T02:22:39.281Z,14.30
2023-04-24T02:25:08.434Z,18.60
2023-04-24T02:27:35.654Z,15.20
2023-04-24T02:30:06.616Z,17.30
2023-04-24T02:32:33.907Z,22.70
2023-04-24T02:35:01.087Z,17.00
2023-04-24T02:37:28.241Z,16.40
2023-04-24T02:39:55.425Z,20.00
2023-04-24T02:42:23.957Z,14.90
2023-04-24T02:44:52.685Z,20.30
2023-04-24T02:47:19.899Z,15.20
2023-04-24T02:49:47.108Z,10.30
2023-04-24T02:52:15.978Z,16.30
2023-04-24T02:54:43.173Z,9.50
2023-04-24T02:57:10.246Z,12.70
2023-04-24T02:59:38.354Z,9.50
2023-04-24T03:14:07.583Z,21.60
2023-04-24T03:16:34.834Z,13.70
2023-04-24T03:19:02.346Z,18.20
2023-04-24T03:21:30.638Z,26.30
2023-04-24T03:24:00.074Z,34.10
2023-04-24T03:26:27.502Z,40.90
2023-04-24T03:29:07.171Z,37.20
2023-04-24T03:31:34.675Z,52.40
2023-04-24T03:34:01.928Z,52.70
2023-04-24T03:36:29.589Z,44.00
2023-04-24T03:38:56.845Z,60.00
2023-04-24T03:41:33.959Z,46.20
2023-04-24T03:44:23.705Z,42.80
2023-04-24T03:46:51.288Z,46.40
2023-04-24T03:49:19.755Z,38.50
2023-04-24T03:51:47.341Z,34.70
2023-04-24T03:54:26.882Z,35.30
2023-04-24T03:56:55.180Z,36.30
2023-04-24T03:59:23.429Z,38.00
2023-04-24T04:02:01.019Z,46.00
2023-04-24T04:04:29.198Z,45.20
2023-04-24T04:09:30.713Z,32.60
2023-04-24T04:11:57.867Z,29.10
2023-04-24T04:14:25.481Z,33.80
2023-04-24T04:16:54.679Z,36.40
2023-04-24T04:19:22.835Z,33.30
2023-04-24T04:21:54.635Z,22.90
2023-04-24T04:24:45.711Z,24.00
2023-04-24T04:27:15.177Z,30.20
2023-04-24T04:29:51.244Z,19.50
2023-04-24T04:32:19.167Z,25.80
2023-04-24T04:34:50.818Z,41.30
2023-04-24T04:37:18.526Z,42.00
2023-04-24T04:39:51.731Z,38.30
2023-04-24T04:42:22.400Z,38.10
2023-04-24T04:44:52.087Z,49.60
2023-04-24T04:47:24.587Z,62.30
2023-04-24T04:49:55.152Z,56.90
2023-04-24T04:52:26.525Z,50.90
2023-04-24T04:54:59.959Z,72.30
2023-04-24T04:57:34.219Z,62.30
2023-04-24T05:05:57.404Z,55.10
2023-04-24T05:08:43.812Z,50.60
2023-04-24T05:11:16.360Z,41.40
2023-04-24T05:13:43.626Z,48.70
2023-04-24T05:16:16.973Z,56.60
2023-04-24T05:18:47.631Z,57.10
2023-04-24T05:21:17.120Z,54.40
2023-04-24T05:23:47.075Z,58.80
2023-04-24T05:26:16.831Z,55.80
2023-04-24T05:28:45.293Z,56.70
2023-04-24T05:31:13.759Z,57.70
2023-04-24T05:33:41.116Z,46.60
2023-04-24T05:36:08.709Z,50.50
2023-04-24T05:38:37.147Z,51.00
2023-04-24T05:41:04.342Z,30.10
2023-04-24T05:43:32.904Z,43.00
2023-04-24T05:46:04.633Z,36.00
2023-04-24T05:48:32.852Z,32.00
2023-04-24T05:51:02.341Z,29.10
2023-04-24T05:53:30.916Z,21.00
2023-04-24T05:55:59.178Z,21.30
2023-04-24T05:58:27.176Z,16.80
2023-04-24T06:00:54.944Z,24.30
2023-04-24T06:03:23.132Z,22.20
2023-04-24T06:05:52.377Z,31.50
2023-04-24T06:08:20.112Z,17.50
2023-04-24T06:10:47.881Z,27.80
2023-04-24T06:13:17.297Z,25.70
2023-04-24T06:15:54.433Z,24.00
2023-04-24T06:18:30.368Z,22.30
2023-04-24T06:20:57.680Z,26.70
2023-04-24T06:23:24.918Z,15.30
2023-04-24T06:25:52.436Z,21.30
2023-04-24T06:28:19.790Z,11.00
2023-04-24T06:30:46.897Z,13.20
2023-04-24T06:35:49.373Z,9.40
2023-04-24T06:38:17.965Z,21.80
2023-04-24T06:40:46.140Z,21.10
2023-04-24T06:43:13.877Z,17.50
2023-04-24T06:45:41.271Z,11.60
2023-04-24T06:48:08.609Z,11.90
2023-04-24T06:50:36.527Z,15.00
2023-04-24T06:53:03.658Z,10.00
2023-04-24T06:55:32.366Z,12.10
2023-04-24T06:57:59.919Z,10.20
2023-04-24T07:00:27.073Z,8.40
2023-04-24T07:02:54.553Z,9.00
2023-04-24T07:05:21.792Z,12.50
2023-04-24T07:07:50.233Z,8.30
2023-04-24T07:10:17.431Z,9.00
2023-04-24T07:12:44.909Z,14.10
2023-04-24T07:15:12.066Z,6.70
2023-04-24T07:17:39.837Z,7.60
2023-04-24T07:20:10.591Z,5.40
2023-04-24T07:22:39.304Z,5.40
2023-04-24T07:25:06.731Z,8.70
2023-04-24T07:27:34.315Z,5.50
2023-04-24T07:30:05.720Z,5.30
2023-04-24T07:32:33.128Z,7.20
2023-04-24T07:35:00.260Z,4.30
2023-04-24T07:37:28.967Z,2.50
2023-04-24T07:39:56.528Z,10.70
2023-04-24T07:42:25.355Z,4.90
2023-04-24T07:44:52.597Z,4.20
2023-04-24T07:47:19.722Z,7.50
2023-04-24T07:49:46.868Z,7.30
2023-04-24T07:52:14.121Z,10.60
2023-04-24T07:54:42.066Z,6.90
2023-04-24T07:57:09.471Z,4.20
2023-04-24T07:59:36.675Z,9.50
2023-04-24T08:02:03.845Z,3.70
2023-04-24T08:04:31.219Z,4.60
2023-04-24T08:06:59.014Z,7.20
2023-04-24T08:09:27.647Z,4.10
2023-04-24T08:11:55.081Z,7.10
2023-04-24T08:14:22.342Z,3.30
2023-04-24T08:16:49.410Z,5.20
2023-04-24T08:19:16.563Z,5.50
2023-04-24T08:21:43.704Z,4.60
2023-04-24T08:24:10.833Z,11.20
2023-04-24T08:26:38.015Z,24.40
2023-04-24T08:29:08.020Z,5.20
2023-04-24T08:31:35.311Z,4.40
2023-04-24T08:34:02.666Z,3.60
2023-04-24T08:36:43.551Z,8.30
2023-04-24T08:39:14.024Z,4.40
2023-04-24T08:41:46.640Z,9.00
2023-04-24T08:44:16.884Z,4.30
2023-04-24T08:46:46.762Z,4.80
2023-04-24T08:49:17.424Z,9.80
2023-04-24T08:51:48.884Z,4.50
2023-04-24T08:54:16.499Z,3.50
2023-04-24T08:56:45.126Z,6.70
2023-04-24T08:59:15.761Z,4.10
2023-04-24T09:01:44.935Z,5.10
2023-04-24T09:04:16.317Z,4.10
2023-04-24T09:06:43.864Z,3.90
2023-04-24T09:09:11.162Z,9.40
2023-04-24T09:11:38.382Z,7.00
2023-04-24T09:14:08.726Z,11.60
2023-04-24T09:16:37.257Z,7.30
2023-04-24T09:19:06.850Z,9.70
2023-04-24T09:21:34.987Z,2.80
2023-04-24T09:24:04.611Z,4.90
2023-04-24T09:26:35.070Z,3.30
2023-04-24T09:29:02.354Z,3.70
2023-04-24T09:31:30.826Z,3.50
2023-04-24T09:34:02.900Z,4.20
2023-04-24T09:36:35.117Z,6.90
2023-04-24T09:39:03.143Z,7.90
2023-04-24T09:41:33.890Z,5.40
2023-04-24T09:44:17.576Z,3.60
2023-04-24T09:46:50.079Z,3.20
2023-04-24T09:49:17.917Z,3.90
2023-04-24T09:51:47.315Z,7.40
2023-04-24T09:54:23.772Z,5.90
2023-04-24T09:56:52.185Z,2.00
2023-04-24T09:59:20.841Z,3.20
2023-04-24T10:01:49.865Z,4.00
2023-04-24T10:04:22.069Z,5.50
2023-04-24T10:06:52.844Z,3.40
2023-04-24T10:09:22.259Z,3.20
2023-04-24T10:11:55.236Z,7.80
2023-04-24T10:14:23.676Z,14.30
2023-04-24T10:16:51.384Z,4.00
2023-04-24T10:19:21.527Z,9.80
2023-04-24T10:21:48.836Z,5.50
2023-04-24T10:24:19.593Z,5.20
2023-04-24T10:26:47.000Z,8.20
2023-04-24T10:29:14.810Z,2.80
2023-04-24T10:31:42.818Z,2.60
2023-04-24T10:34:11.770Z,5.60
2023-04-24T10:36:43.907Z,5.20
2023-04-24T10:39:13.818Z,4.10
2023-04-24T10:41:42.245Z,3.20
2023-04-24T10:44:10.999Z,6.30
2023-04-24T10:46:42.418Z,9.70
2023-04-24T10:49:12.574Z,9.50
2023-04-24T10:51:48.437Z,9.00
2023-04-24T10:54:35.133Z,6.60
2023-04-24T10:57:23.786Z,12.40
2023-04-24T11:00:19.887Z,5.80
2023-04-24T11:02:50.617Z,11.00
2023-04-24T11:05:18.902Z,10.60
2023-04-24T11:08:14.482Z,7.30
2023-04-24T11:10:48.842Z,3.00
2023-04-24T11:13:22.890Z,8.70
2023-04-24T11:16:30.254Z,5.70
2023-04-24T11:19:09.010Z,2.80
2023-04-24T11:21:49.750Z,4.30
2023-04-24T11:24:27.641Z,5.70
2023-04-24T11:26:58.718Z,8.30
2023-04-24T11:29:45.724Z,4.90
2023-04-24T11:32:20.732Z,4.40
2023-04-24T11:34:53.038Z,6.50
2023-04-24T11:37:44.013Z,3.30
2023-04-24T11:40:17.688Z,7.10
2023-04-24T11:42:45.548Z,7.50
2023-04-24T11:45:21.029Z,6.70
2023-04-24T11:47:48.819Z,8.70
2023-04-24T11:50:17.073Z,14.20
2023-04-24T11:52:47.656Z,9.00
2023-04-24T11:55:20.916Z,9.30
2023-04-24T11:57:52.296Z,9.20
2023-04-24T12:00:23.846Z,9.00
2023-04-24T12:02:51.682Z,5.70
2023-04-24T12:05:35.857Z,3.70
2023-04-24T12:08:03.239Z,3.80
2023-04-24T12:10:31.410Z,8.50
2023-04-24T12:13:03.957Z,21.20
2023-04-24T12:15:32.313Z,13.80
2023-04-24T12:18:00.152Z,8.50
2023-04-24T12:20:32.349Z,14.90
2023-04-24T12:23:05.071Z,8.90
2023-04-24T12:25:33.178Z,4.30
2023-04-24T12:28:27.024Z,11.60
2023-04-24T12:30:54.795Z,6.60
2023-04-24T12:33:22.354Z,6.80
2023-04-24T12:35:52.631Z,4.30
2023-04-24T12:38:26.956Z,13.90
2023-04-24T12:41:07.693Z,3.60
2023-04-24T12:43:35.212Z,9.00
2023-04-24T12:46:02.424Z,14.00
2023-04-24T12:48:30.411Z,9.50
2023-04-24T12:51:04.154Z,10.80
2023-04-24T12:53:32.457Z,6.80
2023-04-24T12:55:59.831Z,18.20
2023-04-24T12:58:27.097Z,20.80
2023-04-24T13:00:54.407Z,8.60
2023-04-24T13:03:23.758Z,5.60
2023-04-24T13:05:51.546Z,6.70
2023-04-24T13:08:19.508Z,5.30
2023-04-24T13:10:46.722Z,9.80
2023-04-24T13:13:13.776Z,5.20
2023-04-24T13:15:41.401Z,4.20
2023-04-24T13:18:08.567Z,5.20
2023-04-24T13:20:37.449Z,6.60
2023-04-24T13:23:04.700Z,6.70
2023-04-24T13:25:36.434Z,4.50
2023-04-24T13:28:03.562Z,7.30
2023-04-24T13:30:30.632Z,4.40
2023-04-24T13:32:57.759Z,8.80
2023-04-24T13:35:24.888Z,9.10
2023-04-24T13:37:53.180Z,6.80
2023-04-24T13:40:20.356Z,4.90
2023-04-24T13:42:47.472Z,5.30
2023-04-24T13:45:24.870Z,13.00
2023-04-24T13:47:52.857Z,8.20
2023-04-24T13:50:20.501Z,11.30
2023-04-24T13:52:47.645Z,4.10
2023-04-24T13:55:15.044Z,5.20
2023-04-24T13:57:42.149Z,6.20
2023-04-24T14:00:15.558Z,4.40
2023-04-24T14:02:43.648Z,2.60
2023-04-24T14:05:12.308Z,5.10
2023-04-24T14:07:39.626Z,10.50
2023-04-24T14:10:08.660Z,8.80
2023-04-24T14:12:36.278Z,9.30
2023-04-24T14:15:03.847Z,6.30
2023-04-24T14:17:31.960Z,15.40
2023-04-24T14:20:01.661Z,7.10
2023-04-24T14:22:29.264Z,6.90
2023-04-24T14:24:56.356Z,5.60
2023-04-24T14:27:23.700Z,6.10
2023-04-24T14:29:51.008Z,10.90
2023-04-24T14:32:19.574Z,7.50
2023-04-24T14:34:46.725Z,8.70
2023-04-24T14:37:13.884Z,4.80
2023-04-24T14:39:42.364Z,3.20
2023-04-24T14:42:10.822Z,8.50
2023-04-24T14:44:38.290Z,4.30
2023-04-24T14:47:05.482Z,5.70
2023-04-24T14:49:34.143Z,10.70
2023-04-24T14:52:01.469Z,6.60
2023-04-24T14:54:29.614Z,7.00
2023-04-24T14:56:58.379Z,8.00
2023-04-24T14:59:25.599Z,3.60
2023-04-24T15:02:04.976Z,5.80
2023-04-24T15:04:43.202Z,7.30
2023-04-24T15:07:10.552Z,3.00
2023-04-24T15:09:37.657Z,5.20
2023-04-24T15:12:05.233Z,7.30
2023-04-24T15:14:32.462Z,6.60
2023-04-24T15:16:59.741Z,5.30
2023-04-24T15:19:26.998Z,4.10
2023-04-24T15:21:54.820Z,5.90
2023-04-24T15:24:21.901Z,9.90
2023-04-24T15:26:51.497Z,10.20
2023-04-24T15:29:19.044Z,5.10
2023-04-24T15:31:51.361Z,5.10
2023-04-24T15:34:18.491Z,4.80
2023-04-24T15:36:45.804Z,6.10
2023-04-24T15:39:15.833Z,7.60
2023-04-24T15:41:43.095Z,10.70
2023-04-24T15:44:10.575Z,5.00
2023-04-24T15:46:40.809Z,5.00
2023-04-24T15:49:08.009Z,9.00
2023-04-24T15:51:36.351Z,6.90
2023-04-24T15:54:03.963Z,4.90
2023-04-24T15:56:31.645Z,4.10
2023-04-24T15:58:59.237Z,10.40
2023-04-24T16:01:27.810Z,7.40
2023-04-24T16:03:57.252Z,6.00
2023-04-24T16:06:25.960Z,11.80
2023-04-24T16:08:53.025Z,5.20
2023-04-24T16:11:20.167Z,4.70
2023-04-24T16:13:47.332Z,7.60
2023-04-24T16:16:14.490Z,5.70
2023-04-24T16:18:41.933Z,4.10
2023-04-24T16:21:10.893Z,5.50
2023-04-24T16:23:38.332Z,7.60
2023-04-24T16:26:06.862Z,5.70
2023-04-24T16:28:33.929Z,15.30
2023-04-24T16:31:01.427Z,14.30
2023-04-24T16:33:29.518Z,10.90
2023-04-24T16:35:58.215Z,6.90
2023-04-24T16:38:27.522Z,13.40
2023-04-24T16:40:54.961Z,4.90
2023-04-24T16:43:22.107Z,8.00
2023-04-24T16:45:49.210Z,8.10
2023-04-24T16:48:17.929Z,17.60
2023-04-24T16:50:46.370Z,11.10
2023-04-24T16:53:13.984Z,10.60
2023-04-24T16:55:41.195Z,10.30
2023-04-24T16:58:08.586Z,11.90
2023-04-24T17:00:37.093Z,9.80
2023-04-24T17:03:04.553Z,11.10
2023-04-24T17:05:33.668Z,11.40
2023-04-24T17:08:01.092Z,9.00
2023-04-24T17:10:29.202Z,15.90
2023-04-24T17:12:57.644Z,9.80
2023-04-24T17:15:24.780Z,10.20
2023-04-24T17:17:51.992Z,12.40
2023-04-24T17:20:22.761Z,17.00
2023-04-24T17:22:50.382Z,14.30
2023-04-24T17:25:17.838Z,11.00
2023-04-24T17:27:45.390Z,11.70
2023-04-24T17:30:14.802Z,5.50
2023-04-24T17:32:41.901Z,5.10
2023-04-24T17:35:09.374Z,7.60
2023-04-24T17:37:37.933Z,8.10
2023-04-24T17:40:08.401Z,14.30
2023-04-24T17:42:41.573Z,12.50
2023-04-24T17:45:10.183Z,7.90
2023-04-24T17:47:37.328Z,15.90
2023-04-24T17:50:04.736Z,21.60
2023-04-24T17:52:33.630Z,18.60
2023-04-24T17:55:02.375Z,22.20
2023-04-24T17:57:29.651Z,16.80
2023-04-24T17:59:57.561Z,17.70
2023-04-24T18:02:27.965Z,19.20
2023-04-24T18:04:55.656Z,10.70
2023-04-24T18:07:23.028Z,15.10
2023-04-24T18:09:50.128Z,16.90
2023-04-24T18:12:17.311Z,9.00
2023-04-24T18:14:44.456Z,9.10
2023-04-24T18:17:11.828Z,15.30
2023-04-24T18:19:39.158Z,17.00
2023-04-24T18:22:06.376Z,8.40
2023-04-24T18:24:33.763Z,7.50
2023-04-24T18:27:01.854Z,10.30
2023-04-24T18:29:29.374Z,7.50
2023-04-24T18:31:56.806Z,15.40
2023-04-24T18:34:24.030Z,12.70
2023-04-24T18:36:51.345Z,14.90
2023-04-24T18:39:18.499Z,18.20
2023-04-24T18:41:45.906Z,7.40
2023-04-24T18:44:15.474Z,9.80
2023-04-24T18:46:42.758Z,16.80
2023-04-24T18:49:10.425Z,12.20
2023-04-24T18:51:50.195Z,15.90
2023-04-24T18:54:20.075Z,15.30
2023-04-24T18:56:47.200Z,14.10
2023-04-24T18:59:14.396Z,20.40
2023-04-24T19:01:41.841Z,22.20
2023-04-24T19:04:10.161Z,16.30
2023-04-24T19:06:38.290Z,22.30
2023-04-24T19:09:05.940Z,29.20
2023-04-24T19:11:33.645Z,30.40
2023-04-24T19:14:05.824Z,24.00
2023-04-24T19:16:32.995Z,22.00
2023-04-24T19:19:00.241Z,27.70
2023-04-24T19:21:28.606Z,20.60
2023-04-24T19:23:57.214Z,26.50
2023-04-24T19:26:25.998Z,20.60
2023-04-24T19:28:53.841Z,16.20
2023-04-24T19:31:22.308Z,22.60
2023-04-24T19:33:49.800Z,24.80
2023-04-24T19:36:20.872Z,15.80
2023-04-24T19:38:48.278Z,17.10
2023-04-24T19:41:16.252Z,22.10
2023-04-24T19:43:43.512Z,21.30
2023-04-24T19:46:13.396Z,16.30
2023-04-24T19:48:40.885Z,16.30
2023-04-24T19:51:08.087Z,17.80
2023-04-24T19:53:37.343Z,12.90
2023-04-24T19:56:04.591Z,14.70
2023-04-24T19:58:32.751Z,14.60
2023-04-24T20:01:01.659Z,14.90
2023-04-24T20:03:33.486Z,19.00
2023-04-24T20:06:01.361Z,14.30
2023-04-24T20:08:28.573Z,20.60
2023-04-24T20:10:58.212Z,18.90
2023-04-24T20:13:27.768Z,11.50
2023-04-24T20:15:55.735Z,8.70
2023-04-24T20:18:23.383Z,15.40
2023-04-24T20:20:54.286Z,14.10
2023-04-24T20:23:21.552Z,12.90
2023-04-24T20:25:50.249Z,8.90
2023-04-24T20:28:19.340Z,11.70
2023-04-24T20:30:46.612Z,6.70
2023-04-24T20:33:13.746Z,13.60
2023-04-24T20:35:40.925Z,11.40
2023-04-24T20:38:11.088Z,10.80
2023-04-24T20:40:46.910Z,15.70
2023-04-24T20:43:28.640Z,9.80
2023-04-24T20:45:58.312Z,11.50
2023-04-24T20:48:27.178Z,10.70
2023-04-24T20:50:56.145Z,8.40
2023-04-24T20:53:24.162Z,23.60
2023-04-24T20:55:51.309Z,14.00
2023-04-24T20:58:24.560Z,6.80
2023-04-24T21:00:51.957Z,12.50
2023-04-24T21:03:20.060Z,9.90
2023-04-24T21:05:51.316Z,11.70
2023-04-24T21:08:18.452Z,12.50
2023-04-24T21:10:46.685Z,9.70
2023-04-24T21:13:13.838Z,15.50
2023-04-24T21:15:40.989Z,12.30
2023-04-24T21:18:08.109Z,16.80
2023-04-24T21:20:36.505Z,9.50
2023-04-24T21:23:03.637Z,11.60
2023-04-24T21:25:30.823Z,9.30
2023-04-24T21:27:58.787Z,14.20
2023-04-24T21:30:25.947Z,17.10
2023-04-24T21:32:53.334Z,18.10
2023-04-24T21:35:20.897Z,9.90
2023-04-24T21:37:50.916Z,11.90
2023-04-24T21:40:18.019Z,17.10
2023-04-24T21:42:45.727Z,14.90
2023-04-24T21:45:12.847Z,14.10
2023-04-24T21:47:40.070Z,9.90
2023-04-24T21:50:07.962Z,13.80
2023-04-24T21:52:35.323Z,15.10
2023-04-24T21:55:04.667Z,12.10
2023-04-24T21:57:31.819Z,15.10
2023-04-24T21:59:59.013Z,13.30
2023-04-24T22:02:27.754Z,14.20
2023-04-24T22:04:56.667Z,10.40
2023-04-24T22:07:24.120Z,12.10
2023-04-24T22:09:52.702Z,12.00
2023-04-24T22:12:23.619Z,12.80
2023-04-24T22:14:51.718Z,12.70
2023-04-24T22:17:19.161Z,11.20
2023-04-24T22:19:46.462Z,8.70
2023-04-24T22:22:13.669Z,11.60
2023-04-24T22:24:41.012Z,10.40
2023-04-24T22:27:08.161Z,14.70
2023-04-24T22:29:35.454Z,12.30
2023-04-24T22:32:03.176Z,12.80
2023-04-24T22:34:30.446Z,13.20
2023-04-24T22:36:57.779Z,15.00
2023-04-24T22:39:24.888Z,10.50
2023-04-24T22:41:51.926Z,15.10
2023-04-24T22:44:19.320Z,9.20
2023-04-24T22:46:47.786Z,10.70
2023-04-24T22:49:15.063Z,17.70
2023-04-24T22:51:42.886Z,12.90
2023-04-24T22:54:09.987Z,11.50
2023-04-24T22:56:38.345Z,11.20
2023-04-24T22:59:06.631Z,11.10
2023-04-24T23:01:33.934Z,11.30
2023-04-24T23:04:01.100Z,9.80
2023-04-24T23:06:28.318Z,20.30
2023-04-24T23:08:55.494Z,8.40
2023-04-24T23:11:22.691Z,14.70
2023-04-24T23:13:50.071Z,10.20
2023-04-24T23:16:17.505Z,12.20
2023-04-24T23:18:44.631Z,18.00
2023-04-24T23:21:12.511Z,13.60
2023-04-24T23:23:39.722Z,11.50
2023-04-24T23:26:06.932Z,11.80
2023-04-24T23:28:34.060Z,12.90
2023-04-24T23:31:03.282Z,10.40
2023-04-24T23:33:31.433Z,10.10
2023-04-24T23:35:59.310Z,12.90
2023-04-24T23:38:30.132Z,15.20
2023-04-24T23:41:02.350Z,14.70
2023-04-24T23:43:29.444Z,10.20
2023-04-24T23:45:57.233Z,11.00
2023-04-24T23:48:24.291Z,17.60
2023-04-24T23:50:51.425Z,13.80
2023-04-24T23:53:18.564Z,12.30
2023-04-24T23:55:45.665Z,10.70
2023-04-24T23:58:13.835Z,14.70
